createdAt,value
2018-11-14T00:00:33.563Z,21.26
2018-11-14T00:01:11.198Z,21.25
2018-11-14T00:01:48.820Z,21.26
2018-11-14T00:02:26.434Z,21.26
2018-11-14T00:03:04.186Z,21.25
2018-11-14T00:03:41.701Z,21.27
2018-11-14T00:04:19.336Z,21.27
2018-11-14T00:04:56.828Z,21.29
2018-11-14T00:05:34.404Z,21.28
2018-11-14T00:06:12.341Z,21.30
2018-11-14T00:06:49.953Z,21.27
2018-11-14T00:07:27.756Z,21.27
2018-11-14T00:08:05.329Z,21.27
2018-11-14T00:08:42.846Z,21.22
2018-11-14T00:09:20.771Z,21.23
2018-11-14T00:09:58.357Z,21.25
2018-11-14T00:10:36.080Z,21.23
2018-11-14T00:11:13.657Z,21.23
2018-11-14T00:11:51.278Z,21.23
2018-11-14T00:12:28.926Z,21.24
2018-11-14T00:13:06.629Z,21.23
2018-11-14T00:13:44.263Z,21.22
2018-11-14T00:14:21.877Z,21.23
2018-11-14T00:14:59.374Z,21.22
2018-11-14T00:15:36.834Z,21.21
2018-11-14T00:16:14.326Z,21.19
2018-11-14T00:16:51.945Z,21.18
2018-11-14T00:17:29.467Z,21.18
2018-11-14T00:18:07.079Z,21.20
2018-11-14T00:18:44.792Z,21.20
2018-11-14T00:19:22.460Z,21.22
2018-11-14T00:20:00.182Z,21.19
2018-11-14T00:20:37.849Z,21.18
2018-11-14T00:21:15.538Z,21.18
2018-11-14T00:21:53.094Z,21.20
2018-11-14T00:22:30.698Z,21.21
2018-11-14T00:23:08.381Z,21.21
2018-11-14T00:23:45.833Z,21.18
2018-11-14T00:24:23.396Z,21.22
2018-11-14T00:25:00.983Z,21.25
2018-11-14T00:25:38.593Z,21.23
2018-11-14T00:26:16.134Z,21.25
2018-11-14T00:26:54.011Z,21.26
2018-11-14T00:27:31.523Z,21.27
2018-11-14T00:28:09.209Z,21.27
2018-11-14T00:28:46.694Z,21.23
2018-11-14T00:29:24.316Z,21.25
2018-11-14T00:30:02.008Z,21.21
2018-11-14T00:30:39.539Z,21.23
2018-11-14T00:31:17.259Z,21.22
2018-11-14T00:31:54.799Z,21.22
2018-11-14T00:32:32.522Z,21.22
2018-11-14T00:33:10.197Z,21.25
2018-11-14T00:33:47.745Z,21.25
2018-11-14T00:34:25.412Z,21.25
2018-11-14T00:35:02.976Z,21.22
2018-11-14T00:35:40.462Z,21.20
2018-11-14T00:36:18.098Z,21.20
2018-11-14T00:36:55.798Z,21.23
2018-11-14T00:37:33.219Z,21.25
2018-11-14T00:38:10.750Z,21.22
2018-11-14T00:38:48.400Z,21.22
2018-11-14T00:39:25.949Z,21.25
2018-11-14T00:40:03.730Z,21.25
2018-11-14T00:40:41.517Z,21.22
2018-11-14T00:41:19.408Z,21.22
2018-11-14T00:41:56.988Z,21.23
2018-11-14T00:42:34.414Z,21.21
2018-11-14T00:43:12.106Z,21.19
2018-11-14T00:43:49.621Z,21.20
2018-11-14T00:44:27.186Z,21.18
2018-11-14T00:45:04.690Z,21.20
2018-11-14T00:45:42.164Z,21.21
2018-11-14T00:46:19.644Z,21.23
2018-11-14T00:46:57.122Z,21.21
2018-11-14T00:47:34.665Z,21.20
2018-11-14T00:48:12.390Z,21.19
2018-11-14T00:48:50.418Z,21.18
2018-11-14T00:49:28.018Z,21.17
2018-11-14T00:50:05.591Z,21.19
2018-11-14T00:50:43.249Z,21.22
2018-11-14T00:51:20.955Z,21.22
2018-11-14T00:51:58.520Z,21.21
2018-11-14T00:52:36.093Z,21.21
2018-11-14T00:53:13.730Z,21.22
2018-11-14T00:53:51.407Z,21.19
2018-11-14T00:54:29.094Z,21.20
2018-11-14T00:55:06.804Z,21.22
2018-11-14T00:55:44.430Z,21.22
2018-11-14T00:56:22.066Z,21.23
2018-11-14T00:56:59.653Z,21.22
2018-11-14T00:57:37.235Z,21.19
2018-11-14T00:58:14.782Z,21.17
2018-11-14T00:58:52.466Z,21.18
2018-11-14T00:59:29.992Z,21.18
2018-11-14T01:00:08.081Z,21.17
2018-11-14T01:00:45.297Z,21.14
2018-11-14T01:01:22.930Z,21.16
2018-11-14T01:02:00.576Z,21.15
2018-11-14T01:02:38.365Z,21.15
2018-11-14T01:03:16.157Z,21.13
2018-11-14T01:03:53.804Z,21.13
2018-11-14T01:04:31.279Z,21.12
2018-11-14T01:05:08.966Z,21.12
2018-11-14T01:05:46.480Z,21.13
2018-11-14T01:06:24.157Z,21.15
2018-11-14T01:07:01.728Z,21.13
2018-11-14T01:07:39.268Z,21.14
2018-11-14T01:08:16.948Z,21.12
2018-11-14T01:08:54.486Z,21.12
2018-11-14T01:09:32.152Z,21.15
2018-11-14T01:10:09.703Z,21.16
2018-11-14T01:10:47.179Z,21.15
2018-11-14T01:11:24.866Z,21.15
2018-11-14T01:12:02.658Z,21.15
2018-11-14T01:12:40.093Z,21.14
2018-11-14T01:13:17.876Z,21.12
2018-11-14T01:13:55.293Z,21.09
2018-11-14T01:14:33.159Z,21.08
2018-11-14T01:15:10.850Z,21.08
2018-11-14T01:15:48.606Z,21.11
2018-11-14T01:16:26.212Z,21.08
2018-11-14T01:17:03.764Z,21.07
2018-11-14T01:17:41.581Z,21.07
2018-11-14T01:18:19.176Z,21.08
2018-11-14T01:18:56.687Z,21.11
2018-11-14T01:19:34.325Z,21.12
2018-11-14T01:20:11.821Z,21.12
2018-11-14T01:20:49.530Z,21.12
2018-11-14T01:21:26.995Z,21.10
2018-11-14T01:22:04.817Z,21.12
2018-11-14T01:22:42.286Z,21.13
2018-11-14T01:23:20.117Z,21.13
2018-11-14T01:23:57.971Z,21.14
2018-11-14T01:24:35.523Z,21.13
2018-11-14T01:25:13.058Z,21.12
2018-11-14T01:25:50.681Z,21.11
2018-11-14T01:26:28.331Z,21.09
2018-11-14T01:27:05.875Z,21.12
2018-11-14T01:27:43.405Z,21.11
2018-11-14T01:28:21.013Z,21.10
2018-11-14T01:28:58.800Z,21.08
2018-11-14T01:29:36.429Z,21.07
2018-11-14T01:30:14.153Z,21.10
2018-11-14T01:30:51.785Z,21.08
2018-11-14T01:31:29.563Z,21.07
2018-11-14T01:32:07.179Z,21.06
2018-11-14T01:32:44.719Z,21.07
2018-11-14T01:33:22.398Z,21.07
2018-11-14T01:34:00.109Z,21.06
2018-11-14T01:34:37.773Z,21.04
2018-11-14T01:35:15.317Z,21.03
2018-11-14T01:35:53.080Z,21.03
2018-11-14T01:36:30.770Z,21.06
2018-11-14T01:37:08.283Z,21.02
2018-11-14T01:37:45.918Z,21.05
2018-11-14T01:38:23.424Z,21.06
2018-11-14T01:39:01.016Z,21.10
2018-11-14T01:39:38.702Z,21.14
2018-11-14T01:40:16.303Z,21.15
2018-11-14T01:40:53.720Z,21.17
2018-11-14T01:41:31.263Z,21.12
2018-11-14T01:42:08.836Z,21.15
2018-11-14T01:42:46.399Z,21.18
2018-11-14T01:43:23.969Z,21.19
2018-11-14T01:44:01.783Z,21.18
2018-11-14T01:44:39.527Z,21.17
2018-11-14T01:45:17.030Z,21.15
2018-11-14T01:45:54.578Z,21.15
2018-11-14T01:46:32.126Z,21.15
2018-11-14T01:47:09.742Z,21.13
2018-11-14T01:47:47.179Z,21.13
2018-11-14T01:48:24.866Z,21.16
2018-11-14T01:49:02.488Z,21.15
2018-11-14T01:49:40.098Z,21.16
2018-11-14T01:50:17.781Z,21.15
2018-11-14T01:50:55.281Z,21.15
2018-11-14T01:51:33.090Z,21.15
2018-11-14T01:52:10.758Z,21.13
2018-11-14T01:52:48.331Z,21.15
2018-11-14T01:53:26.168Z,21.16
2018-11-14T01:54:03.855Z,21.17
2018-11-14T01:54:41.324Z,21.15
2018-11-14T01:55:18.907Z,21.15
2018-11-14T01:55:56.484Z,21.15
2018-11-14T01:56:34.177Z,21.13
2018-11-14T01:57:11.907Z,21.11
2018-11-14T01:57:49.550Z,21.11
2018-11-14T01:58:27.206Z,21.12
2018-11-14T01:59:04.928Z,21.12
2018-11-14T01:59:42.406Z,21.11
2018-11-14T02:00:20.146Z,21.11
2018-11-14T02:00:58.001Z,21.10
2018-11-14T02:01:36.260Z,21.10
2018-11-14T02:02:13.689Z,21.12
2018-11-14T02:02:51.143Z,21.11
2018-11-14T02:03:28.779Z,21.12
2018-11-14T02:04:06.297Z,21.15
2018-11-14T02:04:43.869Z,21.14
2018-11-14T02:05:21.560Z,21.12
2018-11-14T02:05:59.206Z,21.11
2018-11-14T02:06:36.896Z,21.11
2018-11-14T02:07:14.241Z,21.10
2018-11-14T02:07:51.791Z,21.13
2018-11-14T02:08:29.419Z,21.14
2018-11-14T02:09:06.770Z,21.13
2018-11-14T02:09:44.338Z,21.11
2018-11-14T02:10:21.981Z,21.10
2018-11-14T02:10:59.649Z,21.10
2018-11-14T02:11:37.219Z,21.10
2018-11-14T02:12:14.754Z,21.11
2018-11-14T02:12:52.506Z,21.11
2018-11-14T02:13:30.271Z,21.10
2018-11-14T02:14:07.825Z,21.10
2018-11-14T02:14:45.427Z,21.12
2018-11-14T02:15:23.094Z,21.15
2018-11-14T02:16:00.561Z,21.14
2018-11-14T02:16:38.154Z,21.14
2018-11-14T02:17:15.929Z,21.11
2018-11-14T02:17:53.581Z,21.10
2018-11-14T02:18:31.098Z,21.14
2018-11-14T02:19:08.635Z,21.13
2018-11-14T02:19:46.237Z,21.14
2018-11-14T02:20:23.895Z,21.17
2018-11-14T02:21:01.280Z,21.17
2018-11-14T02:21:38.788Z,21.16
2018-11-14T02:22:16.463Z,21.18
2018-11-14T02:22:54.286Z,21.19
2018-11-14T02:23:31.829Z,21.17
2018-11-14T02:24:09.581Z,21.20
2018-11-14T02:24:47.014Z,21.17
2018-11-14T02:25:24.774Z,21.14
2018-11-14T02:26:02.333Z,21.14
2018-11-14T02:26:40.018Z,21.12
2018-11-14T02:27:17.597Z,21.11
2018-11-14T02:27:55.202Z,21.12
2018-11-14T02:28:33.091Z,21.13
2018-11-14T02:29:10.582Z,21.11
2018-11-14T02:29:48.110Z,21.09
2018-11-14T02:30:25.807Z,21.06
2018-11-14T02:31:03.545Z,21.05
2018-11-14T02:31:41.200Z,21.07
2018-11-14T02:32:18.580Z,21.10
2018-11-14T02:32:56.190Z,21.08
2018-11-14T02:33:33.745Z,21.07
2018-11-14T02:34:11.355Z,21.07
2018-11-14T02:34:48.841Z,21.07
2018-11-14T02:35:26.517Z,21.08
2018-11-14T02:36:03.932Z,21.07
2018-11-14T02:36:41.621Z,21.10
2018-11-14T02:37:19.166Z,21.10
2018-11-14T02:37:56.751Z,21.12
2018-11-14T02:38:34.311Z,21.09
2018-11-14T02:39:11.818Z,21.12
2018-11-14T02:39:49.449Z,21.10
2018-11-14T02:40:27.343Z,21.10
2018-11-14T02:41:04.767Z,21.10
2018-11-14T02:41:42.401Z,21.07
2018-11-14T02:42:19.980Z,21.06
2018-11-14T02:42:57.514Z,21.05
2018-11-14T02:43:35.099Z,21.07
2018-11-14T02:44:12.905Z,21.10
2018-11-14T02:44:50.631Z,21.09
2018-11-14T02:45:28.227Z,21.06
2018-11-14T02:46:05.787Z,21.06
2018-11-14T02:46:43.408Z,21.06
2018-11-14T02:47:20.973Z,21.07
2018-11-14T02:47:58.628Z,21.09
2018-11-14T02:48:36.198Z,21.10
2018-11-14T02:49:13.798Z,21.08
2018-11-14T02:49:51.413Z,21.07
2018-11-14T02:50:29.061Z,21.09
2018-11-14T02:51:06.537Z,21.10
2018-11-14T02:51:44.119Z,21.13
2018-11-14T02:52:21.701Z,21.10
2018-11-14T02:52:59.136Z,21.11
2018-11-14T02:53:36.750Z,21.10
2018-11-14T02:54:14.369Z,21.12
2018-11-14T02:54:52.042Z,21.11
2018-11-14T02:55:29.668Z,21.09
2018-11-14T02:56:07.243Z,21.08
2018-11-14T02:56:44.930Z,21.07
2018-11-14T02:57:22.579Z,21.08
2018-11-14T02:58:00.133Z,21.07
2018-11-14T02:58:37.652Z,21.06
2018-11-14T02:59:15.362Z,21.06
2018-11-14T02:59:53.082Z,21.05
2018-11-14T03:00:30.661Z,21.04
2018-11-14T03:01:08.017Z,21.05
2018-11-14T03:01:45.647Z,21.05
2018-11-14T03:02:23.208Z,21.03
2018-11-14T03:03:00.743Z,21.05
2018-11-14T03:03:38.381Z,21.04
2018-11-14T03:04:16.045Z,21.04
2018-11-14T03:04:53.558Z,21.05
2018-11-14T03:05:31.164Z,21.05
2018-11-14T03:06:08.734Z,21.02
2018-11-14T03:06:46.327Z,21.01
2018-11-14T03:07:23.897Z,21.02
2018-11-14T03:08:01.455Z,21.02
2018-11-14T03:08:39.010Z,21.01
2018-11-14T03:09:16.784Z,21.02
2018-11-14T03:09:54.350Z,21.01
2018-11-14T03:10:31.795Z,21.00
2018-11-14T03:11:09.435Z,21.00
2018-11-14T03:11:47.222Z,21.00
2018-11-14T03:12:25.088Z,20.98
2018-11-14T03:13:02.698Z,20.99
2018-11-14T03:13:40.479Z,21.04
2018-11-14T03:14:18.051Z,21.07
2018-11-14T03:14:55.744Z,21.04
2018-11-14T03:15:33.288Z,21.01
2018-11-14T03:16:10.863Z,21.00
2018-11-14T03:16:48.498Z,20.99
2018-11-14T03:17:26.139Z,20.98
2018-11-14T03:18:03.787Z,20.99
2018-11-14T03:18:41.555Z,20.99
2018-11-14T03:19:19.086Z,21.00
2018-11-14T03:19:56.660Z,21.01
2018-11-14T03:20:34.454Z,21.03
2018-11-14T03:21:12.299Z,21.04
2018-11-14T03:21:50.027Z,21.03
2018-11-14T03:22:28.000Z,21.01
2018-11-14T03:23:05.467Z,21.01
2018-11-14T03:23:43.055Z,21.04
2018-11-14T03:24:20.666Z,21.07
2018-11-14T03:24:58.282Z,21.07
2018-11-14T03:25:35.857Z,21.06
2018-11-14T03:26:13.440Z,21.04
2018-11-14T03:26:51.193Z,21.01
2018-11-14T03:27:28.600Z,21.02
2018-11-14T03:28:06.281Z,21.00
2018-11-14T03:28:44.072Z,21.06
2018-11-14T03:29:21.590Z,21.03
2018-11-14T03:29:59.170Z,21.00
2018-11-14T03:30:36.977Z,21.00
2018-11-14T03:31:14.547Z,20.99
2018-11-14T03:31:52.101Z,20.98
2018-11-14T03:32:29.791Z,20.98
2018-11-14T03:33:07.369Z,21.00
2018-11-14T03:33:45.024Z,20.99
2018-11-14T03:34:22.633Z,20.99
2018-11-14T03:35:00.399Z,20.99
2018-11-14T03:35:38.392Z,20.96
2018-11-14T03:36:15.886Z,20.96
2018-11-14T03:36:53.513Z,20.94
2018-11-14T03:37:31.129Z,20.94
2018-11-14T03:38:08.761Z,20.93
2018-11-14T03:38:46.418Z,20.93
2018-11-14T03:39:24.026Z,20.93
2018-11-14T03:40:01.777Z,20.94
2018-11-14T03:40:39.601Z,20.94
2018-11-14T03:41:17.291Z,20.94
2018-11-14T03:41:54.947Z,20.93
2018-11-14T03:42:32.538Z,20.93
2018-11-14T03:43:10.202Z,20.93
2018-11-14T03:43:47.674Z,20.93
2018-11-14T03:44:25.213Z,20.95
2018-11-14T03:45:02.843Z,20.95
2018-11-14T03:45:40.350Z,20.95
2018-11-14T03:46:17.886Z,20.94
2018-11-14T03:46:55.463Z,20.95
2018-11-14T03:47:32.946Z,20.98
2018-11-14T03:48:10.491Z,20.96
2018-11-14T03:48:48.026Z,20.96
2018-11-14T03:49:25.606Z,20.96
2018-11-14T03:50:03.248Z,20.95
2018-11-14T03:50:40.795Z,20.94
2018-11-14T03:51:18.430Z,20.93
2018-11-14T03:51:56.226Z,20.95
2018-11-14T03:52:33.740Z,20.96
2018-11-14T03:53:11.328Z,20.97
2018-11-14T03:53:48.932Z,20.97
2018-11-14T03:54:26.526Z,20.95
2018-11-14T03:55:04.123Z,20.95
2018-11-14T03:55:41.872Z,20.95
2018-11-14T03:56:19.424Z,20.93
2018-11-14T03:56:57.088Z,20.93
2018-11-14T03:57:34.751Z,20.93
2018-11-14T03:58:12.167Z,20.93
2018-11-14T03:58:49.952Z,20.93
2018-11-14T03:59:27.591Z,20.92
2018-11-14T04:00:05.258Z,20.93
2018-11-14T04:00:42.813Z,20.94
2018-11-14T04:01:20.461Z,20.95
2018-11-14T04:01:58.013Z,20.96
2018-11-14T04:02:35.642Z,20.95
2018-11-14T04:03:13.180Z,20.95
2018-11-14T04:03:50.840Z,20.96
2018-11-14T04:04:28.427Z,20.96
2018-11-14T04:05:05.962Z,20.94
2018-11-14T04:05:43.532Z,20.94
2018-11-14T04:06:21.300Z,20.93
2018-11-14T04:06:58.850Z,20.94
2018-11-14T04:07:36.431Z,20.94
2018-11-14T04:08:14.146Z,20.94
2018-11-14T04:08:51.781Z,20.93
2018-11-14T04:09:29.570Z,20.94
2018-11-14T04:10:07.042Z,20.95
2018-11-14T04:10:44.508Z,20.98
2018-11-14T04:11:22.021Z,20.97
2018-11-14T04:11:59.695Z,20.97
2018-11-14T04:12:37.316Z,20.96
2018-11-14T04:13:14.824Z,20.98
2018-11-14T04:13:52.479Z,20.98
2018-11-14T04:14:30.027Z,20.97
2018-11-14T04:15:07.562Z,20.96
2018-11-14T04:15:45.253Z,20.95
2018-11-14T04:16:22.766Z,20.99
2018-11-14T04:17:00.334Z,21.02
2018-11-14T04:17:37.973Z,21.02
2018-11-14T04:18:15.750Z,21.00
2018-11-14T04:18:53.374Z,20.99
2018-11-14T04:19:30.986Z,20.98
2018-11-14T04:20:08.466Z,20.99
2018-11-14T04:20:46.100Z,21.00
2018-11-14T04:21:23.763Z,21.01
2018-11-14T04:22:01.321Z,20.97
2018-11-14T04:22:38.856Z,20.99
2018-11-14T04:23:16.438Z,20.98
2018-11-14T04:23:54.022Z,20.98
2018-11-14T04:24:31.567Z,20.98
2018-11-14T04:25:09.191Z,20.97
2018-11-14T04:25:47.004Z,20.96
2018-11-14T04:26:24.556Z,20.96
2018-11-14T04:27:02.277Z,20.96
2018-11-14T04:27:40.061Z,20.95
2018-11-14T04:28:17.683Z,20.96
2018-11-14T04:28:55.046Z,20.95
2018-11-14T04:29:32.756Z,20.95
2018-11-14T04:30:10.273Z,20.98
2018-11-14T04:30:47.891Z,21.00
2018-11-14T04:31:25.578Z,20.98
2018-11-14T04:32:03.054Z,20.98
2018-11-14T04:32:40.656Z,20.97
2018-11-14T04:33:18.214Z,20.96
2018-11-14T04:33:55.753Z,20.95
2018-11-14T04:34:33.451Z,20.93
2018-11-14T04:35:10.900Z,20.93
2018-11-14T04:35:48.444Z,20.92
2018-11-14T04:36:25.986Z,20.92
2018-11-14T04:37:03.613Z,20.93
2018-11-14T04:37:41.393Z,20.95
2018-11-14T04:38:18.753Z,20.96
2018-11-14T04:38:56.419Z,20.95
2018-11-14T04:39:33.988Z,20.93
2018-11-14T04:40:11.725Z,20.93
2018-11-14T04:40:49.217Z,20.90
2018-11-14T04:41:26.738Z,20.90
2018-11-14T04:42:04.222Z,20.90
2018-11-14T04:42:42.038Z,20.89
2018-11-14T04:43:19.533Z,20.90
2018-11-14T04:43:57.135Z,20.90
2018-11-14T04:44:34.682Z,20.88
2018-11-14T04:45:12.182Z,20.88
2018-11-14T04:45:49.907Z,20.88
2018-11-14T04:46:27.486Z,20.88
2018-11-14T04:47:05.067Z,20.88
2018-11-14T04:47:42.647Z,20.88
2018-11-14T04:48:20.216Z,20.87
2018-11-14T04:48:57.922Z,20.86
2018-11-14T04:49:35.701Z,20.88
2018-11-14T04:50:13.253Z,20.87
2018-11-14T04:50:50.851Z,20.88
2018-11-14T04:51:28.455Z,20.88
2018-11-14T04:52:06.050Z,20.88
2018-11-14T04:52:43.694Z,20.87
2018-11-14T04:53:21.483Z,20.87
2018-11-14T04:53:59.102Z,20.88
2018-11-14T04:54:36.744Z,20.88
2018-11-14T04:55:14.303Z,20.88
2018-11-14T04:55:51.854Z,20.88
2018-11-14T04:56:29.471Z,20.89
2018-11-14T04:57:07.166Z,20.89
2018-11-14T04:57:44.811Z,20.89
2018-11-14T04:58:22.320Z,20.89
2018-11-14T04:58:59.939Z,20.89
2018-11-14T04:59:37.522Z,20.88
2018-11-14T05:00:15.171Z,20.88
2018-11-14T05:00:52.814Z,20.88
2018-11-14T05:01:30.363Z,20.87
2018-11-14T05:02:07.921Z,20.87
2018-11-14T05:02:45.459Z,20.85
2018-11-14T05:03:22.987Z,20.87
2018-11-14T05:04:00.581Z,20.89
2018-11-14T05:04:38.352Z,20.92
2018-11-14T05:05:16.178Z,20.92
2018-11-14T05:05:53.805Z,20.92
2018-11-14T05:06:31.421Z,20.92
2018-11-14T05:07:09.009Z,20.91
2018-11-14T05:07:46.623Z,20.90
2018-11-14T05:08:24.158Z,20.92
2018-11-14T05:09:01.806Z,20.93
2018-11-14T05:09:39.427Z,20.94
2018-11-14T05:10:16.925Z,20.94
2018-11-14T05:10:54.497Z,20.94
2018-11-14T05:11:32.134Z,20.93
2018-11-14T05:12:09.862Z,20.92
2018-11-14T05:12:47.448Z,20.90
2018-11-14T05:13:24.886Z,20.89
2018-11-14T05:14:02.439Z,20.89
2018-11-14T05:14:40.061Z,20.91
2018-11-14T05:15:17.653Z,20.90
2018-11-14T05:15:55.451Z,20.89
2018-11-14T05:16:33.242Z,20.89
2018-11-14T05:17:10.770Z,20.88
2018-11-14T05:17:48.329Z,20.88
2018-11-14T05:18:25.861Z,20.88
2018-11-14T05:19:03.404Z,20.86
2018-11-14T05:19:41.078Z,20.88
2018-11-14T05:20:18.644Z,20.90
2018-11-14T05:20:56.193Z,20.88
2018-11-14T05:21:33.641Z,20.88
2018-11-14T05:22:11.409Z,20.87
2018-11-14T05:22:48.923Z,20.88
2018-11-14T05:23:26.510Z,20.87
2018-11-14T05:24:04.223Z,20.87
2018-11-14T05:24:41.770Z,20.87
2018-11-14T05:25:19.239Z,20.92
2018-11-14T05:25:56.819Z,20.92
2018-11-14T05:26:34.338Z,20.94
2018-11-14T05:27:12.126Z,20.98
2018-11-14T05:27:49.828Z,20.99
2018-11-14T05:28:27.405Z,21.07
2018-11-14T05:29:04.970Z,21.11
2018-11-14T05:29:42.428Z,21.06
2018-11-14T05:30:19.861Z,21.09
2018-11-14T05:30:57.440Z,21.16
2018-11-14T05:31:34.915Z,21.15
2018-11-14T05:32:12.526Z,21.20
2018-11-14T05:32:49.976Z,21.21
2018-11-14T05:33:27.631Z,21.18
2018-11-14T05:34:05.229Z,21.15
2018-11-14T05:34:42.789Z,21.10
2018-11-14T05:35:20.607Z,21.06
2018-11-14T05:35:58.067Z,21.07
2018-11-14T05:36:35.617Z,21.08
2018-11-14T05:37:13.153Z,21.09
2018-11-14T05:37:50.803Z,21.05
2018-11-14T05:38:28.413Z,21.07
2018-11-14T05:39:05.950Z,21.09
2018-11-14T05:39:43.653Z,21.11
2018-11-14T05:40:21.341Z,21.13
2018-11-14T05:40:58.707Z,21.15
2018-11-14T05:41:36.524Z,21.19
2018-11-14T05:42:14.174Z,21.19
2018-11-14T05:42:51.974Z,21.22
2018-11-14T05:43:29.585Z,21.20
2018-11-14T05:44:07.190Z,21.20
2018-11-14T05:44:44.760Z,21.21
2018-11-14T05:45:22.356Z,21.22
2018-11-14T05:45:59.996Z,21.28
2018-11-14T05:46:37.587Z,21.29
2018-11-14T05:47:15.201Z,21.35
2018-11-14T05:47:52.767Z,21.39
2018-11-14T05:48:30.182Z,21.41
2018-11-14T05:49:07.789Z,21.36
2018-11-14T05:49:45.289Z,21.36
2018-11-14T05:50:22.821Z,21.33
2018-11-14T05:51:00.364Z,21.31
2018-11-14T05:51:37.962Z,21.25
2018-11-14T05:52:15.526Z,21.31
2018-11-14T05:52:53.214Z,21.31
2018-11-14T05:53:30.761Z,21.31
2018-11-14T05:54:08.222Z,21.26
2018-11-14T05:54:45.884Z,21.21
2018-11-14T05:55:23.600Z,21.22
2018-11-14T05:56:01.192Z,21.27
2018-11-14T05:56:38.795Z,21.34
2018-11-14T05:57:16.269Z,21.34
2018-11-14T05:57:53.811Z,21.37
2018-11-14T05:58:31.382Z,21.38
2018-11-14T05:59:09.070Z,21.36
2018-11-14T05:59:46.788Z,21.37
2018-11-14T06:00:24.373Z,21.34
2018-11-14T06:01:01.995Z,21.35
2018-11-14T06:01:39.455Z,21.38
2018-11-14T06:02:17.204Z,21.38
2018-11-14T06:02:54.975Z,21.39
2018-11-14T06:03:32.656Z,21.41
2018-11-14T06:04:10.196Z,21.41
2018-11-14T06:04:48.001Z,21.41
2018-11-14T06:05:25.654Z,21.42
2018-11-14T06:06:03.387Z,21.42
2018-11-14T06:06:41.147Z,21.44
2018-11-14T06:07:18.984Z,21.42
2018-11-14T06:07:56.601Z,21.41
2018-11-14T06:08:34.239Z,21.35
2018-11-14T06:09:11.730Z,21.32
2018-11-14T06:09:49.557Z,21.32
2018-11-14T06:10:27.107Z,21.31
2018-11-14T06:11:04.743Z,21.29
2018-11-14T06:11:42.575Z,21.33
2018-11-14T06:12:20.386Z,21.33
2018-11-14T06:12:58.194Z,21.31
2018-11-14T06:13:35.777Z,21.30
2018-11-14T06:14:13.385Z,21.30
2018-11-14T06:14:51.093Z,21.32
2018-11-14T06:15:28.929Z,21.30
2018-11-14T06:16:06.570Z,21.28
2018-11-14T06:16:44.073Z,21.29
2018-11-14T06:17:21.566Z,21.28
2018-11-14T06:17:59.369Z,21.27
2018-11-14T06:18:36.902Z,21.29
2018-11-14T06:19:14.490Z,21.24
2018-11-14T06:19:52.294Z,21.23
2018-11-14T06:20:29.997Z,21.23
2018-11-14T06:21:07.549Z,21.23
2018-11-14T06:21:45.150Z,21.26
2018-11-14T06:22:22.820Z,21.30
2018-11-14T06:23:00.466Z,21.27
2018-11-14T06:23:38.350Z,21.29
2018-11-14T06:24:15.971Z,21.32
2018-11-14T06:24:53.627Z,21.33
2018-11-14T06:25:31.157Z,21.34
2018-11-14T06:26:08.854Z,21.32
2018-11-14T06:26:46.778Z,21.30
2018-11-14T06:27:24.454Z,21.28
2018-11-14T06:28:02.152Z,21.31
2018-11-14T06:28:39.678Z,21.30
2018-11-14T06:29:17.274Z,21.27
2018-11-14T06:29:54.961Z,21.28
2018-11-14T06:30:32.783Z,21.32
2018-11-14T06:31:10.520Z,21.30
2018-11-14T06:31:48.173Z,21.32
2018-11-14T06:32:25.814Z,21.35
2018-11-14T06:33:03.418Z,21.35
2018-11-14T06:33:41.080Z,21.38
2018-11-14T06:34:18.775Z,21.38
2018-11-14T06:34:56.463Z,21.37
2018-11-14T06:35:34.255Z,21.37
2018-11-14T06:36:11.724Z,21.37
2018-11-14T06:36:49.193Z,21.41
2018-11-14T06:37:26.814Z,21.41
2018-11-14T06:38:04.533Z,21.40
2018-11-14T06:38:42.163Z,21.42
2018-11-14T06:39:19.958Z,21.43
2018-11-14T06:39:57.518Z,21.44
2018-11-14T06:40:35.245Z,21.45
2018-11-14T06:41:12.799Z,21.46
2018-11-14T06:41:50.701Z,21.47
2018-11-14T06:42:28.227Z,21.47
2018-11-14T06:43:05.866Z,21.46
2018-11-14T06:43:43.492Z,21.44
2018-11-14T06:44:21.234Z,21.45
2018-11-14T06:44:58.860Z,21.46
2018-11-14T06:45:36.294Z,21.46
2018-11-14T06:46:13.761Z,21.46
2018-11-14T06:46:51.393Z,21.50
2018-11-14T06:47:28.889Z,21.48
2018-11-14T06:48:06.457Z,21.49
2018-11-14T06:48:43.981Z,21.49
2018-11-14T06:49:21.718Z,21.48
2018-11-14T06:49:59.115Z,21.48
2018-11-14T06:50:36.727Z,21.49
2018-11-14T06:51:14.327Z,21.51
2018-11-14T06:51:51.871Z,21.49
2018-11-14T06:52:29.435Z,21.49
2018-11-14T06:53:07.166Z,21.47
2018-11-14T06:53:44.697Z,21.50
2018-11-14T06:54:22.250Z,21.49
2018-11-14T06:54:59.985Z,21.49
2018-11-14T06:55:37.630Z,21.50
2018-11-14T06:56:15.429Z,21.49
2018-11-14T06:56:52.934Z,21.49
2018-11-14T06:57:30.620Z,21.49
2018-11-14T06:58:08.240Z,21.51
2018-11-14T06:58:45.937Z,21.51
2018-11-14T06:59:23.668Z,21.49
2018-11-14T07:00:01.194Z,21.51
2018-11-14T07:00:38.894Z,21.53
2018-11-14T07:01:16.469Z,21.53
2018-11-14T07:01:54.371Z,21.53
2018-11-14T07:02:38.334Z,21.52
2018-11-14T07:03:09.614Z,21.52
2018-11-14T07:03:47.055Z,21.51
2018-11-14T07:04:24.885Z,21.50
2018-11-14T07:05:02.843Z,21.50
2018-11-14T07:05:40.473Z,21.48
2018-11-14T07:06:18.114Z,21.49
2018-11-14T07:06:55.703Z,21.49
2018-11-14T07:07:33.192Z,21.52
2018-11-14T07:08:10.781Z,21.50
2018-11-14T07:08:48.399Z,21.50
2018-11-14T07:09:26.195Z,21.55
2018-11-14T07:10:04.050Z,21.58
2018-11-14T07:10:41.562Z,21.53
2018-11-14T07:11:19.068Z,21.50
2018-11-14T07:11:56.699Z,21.51
2018-11-14T07:12:34.492Z,21.51
2018-11-14T07:13:12.130Z,21.50
2018-11-14T07:13:49.718Z,21.53
2018-11-14T07:14:27.460Z,21.51
2018-11-14T07:15:04.961Z,21.52
2018-11-14T07:15:42.445Z,21.52
2018-11-14T07:16:19.966Z,21.56
2018-11-14T07:16:57.481Z,21.55
2018-11-14T07:17:35.330Z,21.57
2018-11-14T07:18:13.169Z,21.54
2018-11-14T07:18:50.891Z,21.55
2018-11-14T07:19:28.522Z,21.54
2018-11-14T07:20:05.978Z,21.52
2018-11-14T07:20:43.616Z,21.52
2018-11-14T07:21:21.187Z,21.48
2018-11-14T07:21:58.721Z,21.50
2018-11-14T07:22:36.259Z,21.51
2018-11-14T07:23:13.872Z,21.53
2018-11-14T07:23:51.595Z,21.51
2018-11-14T07:24:29.114Z,21.50
2018-11-14T07:25:06.725Z,21.51
2018-11-14T07:25:44.253Z,21.53
2018-11-14T07:26:21.996Z,21.51
2018-11-14T07:26:59.601Z,21.54
2018-11-14T07:27:37.290Z,21.50
2018-11-14T07:28:15.071Z,21.50
2018-11-14T07:28:52.609Z,21.50
2018-11-14T07:29:30.119Z,21.50
2018-11-14T07:30:07.779Z,21.50
2018-11-14T07:30:45.430Z,21.49
2018-11-14T07:31:22.943Z,21.48
2018-11-14T07:32:00.439Z,21.51
2018-11-14T07:32:38.035Z,21.48
2018-11-14T07:33:15.639Z,21.49
2018-11-14T07:33:53.142Z,21.48
2018-11-14T07:34:30.675Z,21.49
2018-11-14T07:35:08.321Z,21.53
2018-11-14T07:35:45.978Z,21.50
2018-11-14T07:36:23.623Z,21.48
2018-11-14T07:37:01.118Z,21.47
2018-11-14T07:37:38.905Z,21.44
2018-11-14T07:38:16.382Z,21.42
2018-11-14T07:38:53.980Z,21.47
2018-11-14T07:39:31.488Z,21.49
2018-11-14T07:40:09.113Z,21.47
2018-11-14T07:40:46.702Z,21.48
2018-11-14T07:41:24.341Z,21.45
2018-11-14T07:42:01.874Z,21.46
2018-11-14T07:42:39.525Z,21.46
2018-11-14T07:43:17.218Z,21.46
2018-11-14T07:43:54.829Z,21.49
2018-11-14T07:44:32.330Z,21.50
2018-11-14T07:45:09.975Z,21.48
2018-11-14T07:45:47.409Z,21.46
2018-11-14T07:46:24.981Z,21.45
2018-11-14T07:47:02.774Z,21.44
2018-11-14T07:47:40.279Z,21.48
2018-11-14T07:48:17.876Z,21.48
2018-11-14T07:48:55.480Z,21.52
2018-11-14T07:49:33.004Z,21.51
2018-11-14T07:50:10.605Z,21.53
2018-11-14T07:50:48.048Z,21.52
2018-11-14T07:51:25.677Z,21.49
2018-11-14T07:52:03.153Z,21.47
2018-11-14T07:52:40.739Z,21.48
2018-11-14T07:53:18.472Z,21.49
2018-11-14T07:53:56.132Z,21.44
2018-11-14T07:54:33.900Z,21.42
2018-11-14T07:55:11.343Z,21.42
2018-11-14T07:55:48.953Z,21.42
2018-11-14T07:56:26.455Z,21.42
2018-11-14T07:57:03.994Z,21.44
2018-11-14T07:57:41.513Z,21.42
2018-11-14T07:58:19.145Z,21.40
2018-11-14T07:58:57.069Z,21.39
2018-11-14T07:59:34.434Z,21.39
2018-11-14T08:00:12.060Z,21.39
2018-11-14T08:00:49.702Z,21.35
2018-11-14T08:01:27.221Z,21.32
2018-11-14T08:02:04.830Z,21.35
2018-11-14T08:02:42.445Z,21.36
2018-11-14T08:03:20.134Z,21.37
2018-11-14T08:03:57.908Z,21.34
2018-11-14T08:04:35.355Z,21.32